Time;durP1;ratioP1;P1;durP2;ratioP2;P2;SDS_P1;SDS_P2;PMS_P1;PMS_P2;Temp;Humidity;BMP_temperature;BMP_pressure;BME280_temperature;BME280_humidity;BME280_pressure;Samples;Min_cycle;Max_cycle;Signal;HPM_P1;HPM_P2
2022/06/27 00:01:27;;;;;;;5.50;4.10;;;22.20;74.20;;;24.67;54.66;101531.19;5095953;28;20208;-64
2022/06/27 00:03:54;;;;;;;4.70;4.10;;;22.10;75.00;;;24.47;55.10;101537.09;5095865;28;20214;-63
2022/06/27 00:06:22;;;;;;;5.63;4.27;;;22.00;74.80;;;24.29;55.78;101523.06;5096065;28;20213;-62
2022/06/27 00:08:51;;;;;;;5.00;4.43;;;21.90;74.90;;;24.17;55.58;101504.31;5096008;28;20204;-62
2022/06/27 00:11:20;;;;;;;7.20;4.47;;;21.70;75.40;;;24.06;56.34;101508.72;5095918;28;20215;-63
2022/06/27 00:13:48;;;;;;;4.77;4.17;;;21.60;76.40;;;24.00;56.62;101523.13;5095972;28;20666;-63
2022/06/27 00:16:16;;;;;;;5.27;4.73;;;21.60;76.60;;;23.98;57.02;101527.94;5095968;28;20194;-62
2022/06/27 00:19:03;;;;;;;7.07;4.67;;;21.50;77.20;;;23.95;57.01;101527.59;5096192;28;20192;-63
2022/06/27 00:21:31;;;;;;;5.83;4.10;;;21.40;77.40;;;23.93;56.81;101519.78;5095689;28;20706;-63
2022/06/27 00:24:00;;;;;;;6.27;3.63;;;21.40;77.60;;;23.92;57.15;101495.78;5095218;28;20570;-63
2022/06/27 00:26:27;;;;;;;8.20;4.20;;;21.40;78.10;;;23.92;57.48;101480.47;5095671;28;20196;-62
2022/06/27 00:28:54;;;;;;;6.33;4.13;;;21.40;78.40;;;23.97;57.78;101466.28;5095643;28;20215;-62
2022/06/27 00:31:22;;;;;;;7.27;4.60;;;21.40;78.80;;;23.98;58.02;101455.31;5095590;28;20216;-64
2022/06/27 00:33:49;;;;;;;5.37;3.80;;;21.40;78.60;;;24.02;57.92;101456.44;5096873;28;20191;-63
2022/06/27 00:36:16;;;;;;;4.37;3.77;;;21.50;78.60;;;24.03;57.48;101431.16;5096567;28;20195;-63
2022/06/27 00:38:44;;;;;;;5.00;3.90;;;21.50;77.90;;;24.05;57.62;101430.91;5096042;28;20566;-64
2022/06/27 00:41:13;;;;;;;3.33;2.97;;;21.50;77.80;;;24.04;57.08;101419.34;5095114;28;20227;-63
2022/06/27 00:43:43;;;;;;;3.17;2.70;;;21.50;77.20;;;24.03;56.77;101433.03;5095517;28;20208;-63
2022/06/27 00:46:11;;;;;;;3.20;2.90;;;21.50;76.80;;;24.02;56.80;101442.97;5095387;28;20197;-63
2022/06/27 00:48:39;;;;;;;3.60;2.90;;;21.50;76.70;;;24.06;56.38;101448.66;5095425;28;20192;-63
2022/06/27 00:51:08;;;;;;;4.03;2.80;;;21.50;76.60;;;24.09;56.63;101446.34;5094903;28;20216;-63
2022/06/27 00:53:37;;;;;;;3.30;2.43;;;21.50;76.70;;;24.14;56.24;101457.19;5095136;28;20260;-63
2022/06/27 00:56:05;;;;;;;3.33;3.03;;;21.50;76.50;;;24.16;55.62;101455.06;5095113;28;20192;-63
2022/06/27 00:58:34;;;;;;;3.47;3.10;;;21.50;76.80;;;24.14;55.92;101454.50;5094241;28;20550;-63
2022/06/27 01:01:02;;;;;;;3.73;2.83;;;21.50;75.80;;;24.12;55.39;101459.31;5094778;28;20219;-63
2022/06/27 01:03:29;;;;;;;3.47;2.50;;;21.50;75.30;;;24.12;55.53;101459.31;5094934;28;20571;-63
2022/06/27 01:05:58;;;;;;;3.07;2.77;;;21.50;75.50;;;24.13;55.42;101465.50;5095631;28;20195;-63
2022/06/27 01:08:25;;;;;;;3.73;2.70;;;21.40;75.10;;;24.12;54.71;101453.94;5095805;28;20306;-63
2022/06/27 01:10:54;;;;;;;3.33;2.90;;;21.40;74.60;;;24.13;54.54;101443.97;5094814;28;20265;-63
2022/06/27 01:13:22;;;;;;;3.07;2.77;;;21.40;74.40;;;24.10;54.69;101445.28;5094747;28;20534;-63
2022/06/27 01:15:51;;;;;;;2.83;2.63;;;21.40;74.50;;;24.09;54.51;101459.81;5094649;28;20196;-62
2022/06/27 01:18:19;;;;;;;2.60;2.40;;;21.40;74.30;;;24.08;54.84;101468.91;5094544;28;20517;-63
2022/06/27 01:20:46;;;;;;;3.50;2.73;;;21.40;74.60;;;24.06;54.83;101460.28;5094307;28;20193;-63
2022/06/27 01:23:15;;;;;;;3.00;2.80;;;21.40;74.80;;;24.05;54.75;101460.50;5094433;28;20212;-63
2022/06/27 01:25:43;;;;;;;2.90;2.47;;;21.30;74.40;;;24.02;54.77;101453.75;5094629;28;20192;-63
2022/06/27 01:28:11;;;;;;;4.17;3.67;;;21.30;74.70;;;23.98;54.82;101436.47;5094367;28;20599;-63
2022/06/27 01:30:39;;;;;;;2.90;2.57;;;21.30;74.40;;;23.94;54.36;101424.56;5094055;28;20199;-64
2022/06/27 01:33:06;;;;;;;3.67;2.77;;;21.20;74.80;;;23.87;54.55;101415.84;5094399;28;20195;-62
2022/06/27 01:35:34;;;;;;;3.70;2.80;;;21.20;74.10;;;23.83;54.40;101411.19;5094566;28;20193;-64
2022/06/27 01:38:03;;;;;;;3.30;2.97;;;21.10;74.10;;;23.77;54.76;101402.22;5094274;28;20637;-62
2022/06/27 01:40:32;;;;;;;4.13;2.80;;;21.10;74.30;;;23.74;54.83;101393.84;5093886;28;20673;-64
2022/06/27 01:43:00;;;;;;;2.67;2.43;;;21.00;74.40;;;23.72;54.82;101388.72;5093739;28;20211;-63
2022/06/27 01:45:29;;;;;;;3.03;2.50;;;21.00;74.70;;;23.69;54.90;101381.16;5094132;28;20192;-63
2022/06/27 01:47:56;;;;;;;4.40;3.33;;;20.90;74.70;;;23.65;54.67;101381.88;5094391;28;20188;-62
2022/06/27 01:50:25;;;;;;;4.37;2.43;;;20.90;74.90;;;23.62;54.86;101391.25;5093518;28;20611;-64
2022/06/27 01:52:55;;;;;;;2.57;2.30;;;20.90;75.00;;;23.58;54.89;101404.34;5094154;28;20371;-62
2022/06/27 01:55:24;;;;;;;3.47;2.80;;;20.80;75.10;;;23.58;54.96;101419.69;5094162;28;20207;-63
2022/06/27 01:57:54;;;;;;;4.43;2.90;;;20.80;75.20;;;23.54;55.31;101418.53;5093884;28;20271;-63
2022/06/27 02:00:22;;;;;;;4.77;3.00;;;20.80;75.40;;;23.51;55.16;101421.69;5092953;28;20671;-61
2022/06/27 02:02:49;;;;;;;4.97;3.00;;;20.80;75.40;;;23.50;55.03;101417.38;5093514;28;20205;-64
2022/06/27 02:05:17;;;;;;;3.97;3.20;;;20.80;75.50;;;23.49;55.17;101405.00;5093669;28;20199;-62
2022/06/27 02:07:46;;;;;;;4.17;3.70;;;20.70;75.30;;;23.47;55.35;101393.69;5093609;28;20185;-63
2022/06/27 02:10:14;;;;;;;4.03;2.90;;;20.70;75.40;;;23.45;55.47;101395.78;5093294;28;20192;-64
2022/06/27 02:12:41;;;;;;;5.27;3.50;;;20.70;75.90;;;23.45;55.33;101390.41;5093409;28;20208;-64
2022/06/27 02:15:10;;;;;;;5.37;3.70;;;20.70;75.70;;;23.45;55.34;101388.56;5093774;28;20612;-64
2022/06/27 02:17:38;;;;;;;3.17;2.87;;;20.70;75.60;;;23.43;55.40;101390.69;5093284;28;20198;-64
2022/06/27 02:20:07;;;;;;;4.23;3.57;;;20.70;75.90;;;23.43;55.36;101392.53;5093711;28;20198;-64
2022/06/27 02:22:35;;;;;;;4.60;3.23;;;20.60;75.70;;;23.42;55.26;101390.91;5093224;28;20705;-62
2022/06/27 02:25:03;;;;;;;3.43;3.00;;;20.60;76.60;;;23.44;55.55;101388.78;5093316;28;20216;-64
2022/06/27 02:27:33;;;;;;;4.13;3.43;;;20.60;76.20;;;23.43;55.35;101400.59;5093066;28;20539;-63
2022/06/27 02:30:01;;;;;;;3.90;3.50;;;20.60;76.10;;;23.41;55.76;101392.78;5093072;28;20585;-64
2022/06/27 02:32:31;;;;;;;3.70;3.20;;;20.60;76.30;;;23.41;55.67;101402.72;5092597;28;20287;-64
2022/06/27 02:34:58;;;;;;;3.13;2.83;;;20.60;76.30;;;23.39;55.58;101404.84;5093213;28;20185;-63
2022/06/27 02:37:27;;;;;;;3.37;3.07;;;20.60;76.10;;;23.36;55.73;101418.75;5093510;28;20188;-64
2022/06/27 02:39:56;;;;;;;3.50;3.20;;;20.60;76.40;;;23.39;56.14;101418.28;5093378;28;20560;-64
2022/06/27 02:42:27;;;;;;;3.17;2.87;;;20.60;77.00;;;23.43;56.11;101424.78;5092800;28;20212;-63
2022/06/27 02:44:55;;;;;;;3.10;2.80;;;20.60;77.20;;;23.48;56.32;101435.63;5093101;28;20216;-63
2022/06/27 02:47:23;;;;;;;3.77;3.47;;;20.70;77.40;;;23.56;56.63;101437.91;5093322;28;20199;-64
2022/06/27 02:49:51;;;;;;;4.10;3.63;;;20.70;77.70;;;23.60;56.10;101439.06;5092739;28;20200;-64
2022/06/27 02:52:27;;;;;;;5.07;3.83;;;20.80;77.40;;;23.60;56.12;101428.31;5092668;28;20223;-64
2022/06/27 02:55:01;;;;;;;3.33;3.07;;;20.80;77.60;;;23.61;55.94;101418.34;5108890;28;20205;-64
2022/06/27 02:57:41;;;;;;;3.73;3.03;;;20.80;77.60;;;23.61;56.41;101413.81;5093181;28;20180;-64
2022/06/27 03:00:11;;;;;;;5.47;3.67;;;20.80;77.40;;;23.62;56.11;101420.81;5093150;28;20227;-64
2022/06/27 03:02:42;;;;;;;4.07;3.63;;;20.80;77.30;;;23.60;55.95;101419.44;5092743;28;20204;-62
2022/06/27 03:05:12;;;;;;;5.63;4.00;;;20.80;77.20;;;23.54;56.12;101416.66;5092815;28;20236;-64
2022/06/27 03:07:40;;;;;;;5.20;4.47;;;20.80;77.10;;;23.47;56.18;101412.50;5108879;28;20204;-63
2022/06/27 03:10:10;;;;;;;4.17;3.77;;;20.70;77.20;;;23.43;56.41;101411.34;5093088;28;20189;-64
2022/06/27 03:12:37;;;;;;;3.83;3.50;;;20.70;77.30;;;23.40;56.63;101411.84;5092499;28;20212;-63
2022/06/27 03:15:06;;;;;;;3.93;3.53;;;20.60;77.70;;;23.35;56.63;101415.25;5093108;28;20189;-63
2022/06/27 03:17:33;;;;;;;5.30;3.87;;;20.60;77.70;;;23.32;56.65;101431.03;5092857;28;20189;-63
2022/06/27 03:20:01;;;;;;;4.60;3.53;;;20.50;77.80;;;23.28;56.67;101435.22;5092353;28;20188;-64
2022/06/27 03:22:30;;;;;;;6.07;4.20;;;20.50;78.70;;;23.23;56.81;101441.31;5095504;28;20232;-63
2022/06/27 03:24:58;;;;;;;6.40;4.40;;;20.50;78.10;;;23.21;56.86;101435.38;5096491;28;20209;-63
2022/06/27 03:27:25;;;;;;;4.40;4.03;;;20.50;79.50;;;23.20;57.08;101422.19;5095522;28;20196;-64
2022/06/27 03:29:52;;;;;;;4.03;3.70;;;20.40;78.70;;;23.15;57.04;101414.88;5096781;28;20681;-64
2022/06/27 03:32:20;;;;;;;4.47;4.07;;;20.40;78.70;;;23.11;57.09;101408.31;5094990;28;20231;-64
2022/06/27 03:34:47;;;;;;;3.83;3.43;;;20.40;78.80;;;23.10;57.45;101403.19;5096606;28;20516;-62
2022/06/27 03:37:14;;;;;;;3.57;3.17;;;20.30;79.00;;;23.10;57.44;101398.66;5096024;28;20189;-62
2022/06/27 03:39:43;;;;;;;4.47;3.50;;;20.30;79.10;;;23.10;57.36;101389.78;5096241;28;20219;-62
2022/06/27 03:42:10;;;;;;;4.20;3.50;;;20.30;78.90;;;23.08;57.32;101391.88;5095864;28;20212;-63
2022/06/27 03:44:38;;;;;;;3.90;3.60;;;20.30;79.10;;;23.07;57.29;101384.88;5096061;28;20215;-62
2022/06/27 03:47:05;;;;;;;3.60;3.30;;;20.30;78.90;;;23.04;57.13;101375.41;5095997;28;20196;-62
2022/06/27 03:52:19;;;;;;;4.13;3.73;;;20.20;78.90;;;22.95;57.36;101384.09;5095433;28;20226;-63
2022/06/27 03:54:47;;;;;;;3.60;3.20;;;20.20;79.30;;;22.92;57.45;101378.16;5095275;28;20184;-64
2022/06/27 03:57:15;;;;;;;5.00;3.90;;;20.10;78.80;;;22.89;57.53;101378.63;5096033;28;20658;-63
2022/06/27 03:59:44;;;;;;;3.70;3.40;;;20.10;78.80;;;22.87;57.20;101386.13;5096263;28;20200;-64
2022/06/27 04:02:11;;;;;;;5.43;3.30;;;20.10;78.90;;;22.86;57.17;101395.25;5095336;28;20220;-64
2022/06/27 04:04:38;;;;;;;3.53;3.20;;;20.10;78.70;;;22.83;57.13;101384.16;5096173;28;20274;-63
2022/06/27 04:07:06;;;;;;;3.40;3.10;;;20.00;78.50;;;22.80;57.20;101374.72;5095711;28;20722;-64
2022/06/27 04:09:33;;;;;;;4.00;3.60;;;20.00;78.80;;;22.79;57.41;101359.66;5095501;28;20192;-63
2022/06/27 04:12:03;;;;;;;5.20;3.60;;;20.00;78.50;;;22.74;57.14;101351.53;5095355;28;20220;-64
2022/06/27 04:14:30;;;;;;;3.70;3.40;;;19.90;78.30;;;22.69;57.30;101348.72;5095546;28;20642;-63
2022/06/27 04:16:57;;;;;;;3.67;3.33;;;19.90;78.50;;;22.66;56.98;101351.88;5095878;28;20189;-64
2022/06/27 04:19:25;;;;;;;3.40;3.20;;;19.80;78.30;;;22.63;56.79;101371.16;5095763;28;20196;-64
2022/06/27 04:21:52;;;;;;;3.67;3.37;;;19.80;78.30;;;22.61;56.99;101370.56;5095065;28;20216;-65
2022/06/27 04:24:20;;;;;;;3.57;3.27;;;19.80;78.90;;;22.59;57.25;101366.47;5093952;28;20205;-63
2022/06/27 04:26:47;;;;;;;4.10;3.70;;;19.80;78.30;;;22.58;57.38;101365.63;5095450;28;20214;-64
2022/06/27 04:29:16;;;;;;;3.80;3.03;;;19.80;78.50;;;22.59;57.22;101356.53;5095556;28;20192;-63
2022/06/27 04:31:44;;;;;;;4.50;3.13;;;19.80;78.60;;;22.60;57.45;101352.81;5094596;28;20602;-63
2022/06/27 04:34:12;;;;;;;3.57;2.93;;;19.70;78.70;;;22.65;57.54;101333.34;5095134;28;20195;-63
2022/06/27 04:36:40;;;;;;;3.23;2.97;;;19.80;79.00;;;22.67;57.18;101334.75;5095162;28;20185;-64
2022/06/27 04:39:08;;;;;;;3.70;3.30;;;19.80;78.50;;;22.69;57.22;101338.00;5095051;28;20661;-63
2022/06/27 04:41:35;;;;;;;3.50;3.20;;;19.90;78.60;;;22.72;56.63;101334.00;5094481;28;20223;-64
2022/06/27 04:44:03;;;;;;;3.60;3.30;;;19.90;78.20;;;22.73;56.87;101327.56;5095099;28;20557;-64
2022/06/27 04:46:32;;;;;;;3.50;3.20;;;19.80;77.70;;;22.70;56.27;101328.06;5095136;28;20185;-62
2022/06/27 04:49:00;;;;;;;3.93;3.53;;;19.90;77.80;;;22.68;56.37;101322.94;5095557;28;20212;-64
2022/06/27 04:51:28;;;;;;;3.77;3.37;;;19.90;77.70;;;22.67;56.47;101329.38;5094595;28;20216;-63
2022/06/27 04:53:56;;;;;;;4.40;3.07;;;19.80;77.70;;;22.67;56.87;101331.22;5094839;28;20264;-64
2022/06/27 04:56:24;;;;;;;4.57;3.27;;;19.90;78.10;;;22.73;56.76;101325.72;5094244;28;20188;-63
2022/06/27 04:58:51;;;;;;;5.87;3.97;;;19.90;78.10;;;22.78;56.39;101323.13;5094227;28;20655;-64
2022/06/27 05:01:19;;;;;;;6.37;3.77;;;19.90;77.90;;;22.84;56.59;101322.16;5093682;28;20212;-63
2022/06/27 05:03:47;;;;;;;6.73;4.50;;;19.90;78.20;;;22.88;56.01;101307.22;5094284;28;20192;-63
2022/06/27 05:06:15;;;;;;;5.10;3.73;;;19.90;77.00;;;22.90;55.69;101307.78;5110377;28;20197;-64
2022/06/27 05:08:43;;;;;;;3.77;2.60;;;20.00;77.00;;;22.94;56.17;101315.34;5094369;28;20275;-64
2022/06/27 05:11:10;;;;;;;3.77;3.40;;;20.10;78.00;;;22.99;56.24;101326.19;5093570;28;20209;-64
2022/06/27 05:13:37;;;;;;;3.07;2.63;;;20.10;77.30;;;23.05;55.59;101333.28;5109447;28;20196;-64
2022/06/27 05:16:05;;;;;;;4.80;3.27;;;20.10;76.20;;;23.06;55.24;101329.53;5094194;28;20196;-64
2022/06/27 05:18:38;;;;;;;3.33;2.80;;;20.10;75.70;;;23.04;55.04;101331.63;5093995;28;20196;-64
2022/06/27 05:21:27;;;;;;;2.57;2.20;;;20.10;75.70;;;23.02;54.80;101339.94;5093682;28;20543;-64
2022/06/27 05:23:54;;;;;;;2.63;2.20;;;20.20;75.50;;;23.00;54.93;101338.53;5093446;28;20193;-62
2022/06/27 05:26:22;;;;;;;5.07;3.47;;;20.10;75.00;;;22.97;54.38;101328.28;5093921;28;20189;-63
2022/06/27 05:28:49;;;;;;;3.27;2.50;;;20.10;74.70;;;22.92;54.80;101332.50;5093107;28;20644;-64
2022/06/27 05:31:17;;;;;;;6.37;3.67;;;20.10;75.00;;;22.92;54.50;101338.97;5093355;28;20304;-64
2022/06/27 05:33:44;;;;;;;7.47;3.37;;;20.10;74.90;;;22.92;54.59;101351.31;5093898;28;20196;-64
2022/06/27 05:36:12;;;;;;;3.23;2.80;;;20.10;74.20;;;22.98;54.71;101348.72;5094018;28;20603;-63
2022/06/27 05:38:41;;;;;;;8.70;3.37;;;20.10;75.10;;;23.04;54.58;101340.50;5093792;28;20184;-63
2022/06/27 05:41:09;;;;;;;2.50;2.13;;;20.10;75.00;;;23.12;54.68;101342.81;5093017;28;20350;-63
2022/06/27 05:43:36;;;;;;;4.67;2.83;;;20.20;75.40;;;23.20;54.67;101347.78;5095159;28;20185;-66
2022/06/27 05:46:04;;;;;;;4.53;3.17;;;20.20;75.10;;;23.30;54.40;101345.25;5093173;28;20242;-64
2022/06/27 05:48:32;;;;;;;6.77;4.10;;;20.30;75.20;;;23.40;54.21;101348.16;5093748;28;20224;-63
2022/06/27 05:51:00;;;;;;;4.33;2.87;;;20.40;74.50;;;23.51;53.49;101370.63;5091558;28;20238;-64
2022/06/27 05:53:28;;;;;;;5.87;2.70;;;20.50;74.40;;;23.57;53.26;101369.66;5093623;28;20211;-64
2022/06/27 05:55:58;;;;;;;3.10;1.90;;;20.60;73.50;;;23.58;52.48;101373.16;5108880;28;20185;-64
2022/06/27 05:58:26;;;;;;;2.63;2.07;;;20.60;72.30;;;23.53;52.64;101363.94;5093421;28;20198;-64
2022/06/27 06:00:54;;;;;;;3.37;2.40;;;20.60;73.60;;;23.51;52.47;101349.13;5092645;28;20211;-65
2022/06/27 06:03:21;;;;;;;3.83;2.40;;;20.50;72.40;;;23.49;52.54;101357.44;5093464;28;20189;-63
2022/06/27 06:05:49;;;;;;;2.50;1.90;;;20.60;72.50;;;23.47;52.40;101356.88;5093846;28;20262;-63
2022/06/27 06:08:18;;;;;;;5.10;2.13;;;20.50;72.20;;;23.44;52.60;101369.97;5092979;28;20220;-64
2022/06/27 06:10:46;;;;;;;2.73;2.30;;;20.50;72.50;;;23.42;52.36;101380.97;5092673;28;20193;-64
2022/06/27 06:13:15;;;;;;;3.10;2.10;;;20.50;72.20;;;23.40;52.50;101401.09;5093270;28;20639;-65
2022/06/27 06:15:42;;;;;;;2.77;2.33;;;20.40;72.30;;;23.34;52.41;101412.78;5092789;28;20187;-63
2022/06/27 06:18:10;;;;;;;4.40;2.33;;;20.40;72.10;;;23.26;52.40;101384.44;5093402;28;20242;-64
2022/06/27 06:20:37;;;;;;;4.33;2.07;;;20.40;71.90;;;23.19;52.40;101381.09;5092207;28;20610;-64
2022/06/27 06:23:05;;;;;;;2.80;2.00;;;20.30;72.30;;;23.17;52.41;101391.25;5093637;28;20199;-64
2022/06/27 06:25:32;;;;;;;3.73;2.50;;;20.20;72.00;;;23.15;52.63;101396.06;5091379;28;20551;-64
2022/06/27 06:28:04;;;;;;;4.50;2.00;;;20.20;72.30;;;23.13;52.99;101383.94;5092402;28;20208;-64
2022/06/27 06:30:34;;;;;;;2.60;2.40;;;20.20;72.50;;;23.11;52.57;101402.13;5092836;28;20200;-66
2022/06/27 06:33:04;;;;;;;5.10;2.60;;;20.20;72.60;;;23.05;52.62;101403.09;5092269;28;20555;-67
2022/06/27 06:35:33;;;;;;;5.20;3.13;;;20.10;72.40;;;23.04;53.31;101399.59;5079404;28;20185;-66
2022/06/27 06:38:02;;;;;;;5.37;2.47;;;20.20;73.70;;;23.11;53.34;101415.56;5092517;28;20638;-67
2022/06/27 06:40:30;;;;;;;5.00;2.00;;;20.20;72.90;;;23.14;52.73;101417.78;5092282;28;20191;-67
2022/06/27 06:43:00;;;;;;;5.33;2.67;;;20.20;73.50;;;23.15;52.95;101428.28;5092419;28;20192;-65
2022/06/27 06:45:30;;;;;;;5.07;2.83;;;20.20;73.20;;;23.20;53.46;101432.94;5092834;28;20291;-67
2022/06/27 06:47:59;;;;;;;5.00;2.10;;;20.30;73.50;;;23.24;53.12;101418.78;5125592;28;20267;-66
2022/06/27 06:50:27;;;;;;;7.30;2.67;;;20.30;73.20;;;23.31;53.18;101414.06;5091670;28;20203;-64
2022/06/27 06:52:55;;;;;;;6.60;5.30;;;20.40;73.50;;;23.43;53.07;101405.97;5092015;28;20215;-65
2022/06/27 06:55:24;;;;;;;4.83;2.93;;;20.50;73.30;;;23.53;52.45;101390.03;5092525;28;20200;-67
2022/06/27 06:57:52;;;;;;;3.57;3.23;;;20.50;72.20;;;23.56;52.22;101379.59;5096592;28;20192;-67
2022/06/27 07:00:20;;;;;;;4.23;3.17;;;20.60;72.00;;;23.62;52.24;101377.81;5112006;28;20207;-66
2022/06/27 07:02:52;;;;;;;5.93;2.97;;;20.60;72.10;;;23.68;52.02;101382.19;5095916;28;20315;-67
2022/06/27 07:05:21;;;;;;;4.90;3.10;;;20.60;71.90;;;23.75;52.42;101385.53;5095487;28;20235;-67
2022/06/27 07:07:51;;;;;;;14.30;11.07;;;20.70;72.80;;;23.89;52.63;101376.06;5078067;28;20268;-68
2022/06/27 07:10:20;;;;;;;6.43;3.50;;;20.80;73.10;;;24.01;51.92;101360.63;5096171;28;20651;-67
2022/06/27 07:12:48;;;;;;;4.00;2.70;;;21.00;72.60;;;24.10;51.67;101366.47;5095979;28;20228;-67
2022/06/27 07:15:16;;;;;;;3.93;2.30;;;21.10;72.00;;;24.18;51.39;101356.06;5112337;28;20690;-66
2022/06/27 07:17:45;;;;;;;6.63;5.40;;;21.10;71.70;;;24.31;50.92;101364.84;5096409;28;20188;-66
2022/06/27 07:20:18;;;;;;;3.80;2.43;;;21.20;71.60;;;24.42;50.56;101369.28;5096440;28;20218;-66
2022/06/27 07:22:49;;;;;;;4.07;2.77;;;21.30;70.20;;;24.48;50.21;101368.28;5095440;28;20212;-65
2022/06/27 07:25:18;;;;;;;5.77;2.73;;;21.30;70.20;;;24.57;50.17;101364.09;5095795;28;20230;-65
2022/06/27 07:27:46;;;;;;;2.63;2.30;;;21.40;70.50;;;24.62;50.05;101377.63;5093107;28;20216;-66
2022/06/27 07:30:16;;;;;;;2.33;1.77;;;21.50;70.40;;;24.69;50.11;101373.66;5108882;28;21301;-66
2022/06/27 07:32:44;;;;;;;3.10;2.23;;;21.60;69.90;;;24.74;49.58;101381.81;5088778;28;20212;-67
2022/06/27 07:35:13;;;;;;;4.67;2.33;;;21.60;68.80;;;24.73;49.27;101384.75;5087979;28;20196;-66
2022/06/27 07:37:48;;;;;;;4.07;2.20;;;21.60;68.50;;;24.69;49.20;101394.41;5083198;28;20212;-66
2022/06/27 07:40:20;;;;;;;3.47;2.10;;;21.50;68.80;;;24.70;49.84;101387.94;5086233;28;20192;-66
2022/06/27 07:42:50;;;;;;;2.00;1.80;;;21.60;69.20;;;24.70;49.41;101386.06;5069485;28;21740;-66
2022/06/27 07:45:22;;;;;;;4.53;1.90;;;21.60;68.70;;;24.72;49.59;101388.50;5087417;28;20221;-65
2022/06/27 07:47:51;;;;;;;3.53;2.67;;;21.70;69.00;;;24.76;49.50;101384.25;5086825;28;20193;-66
2022/06/27 07:50:37;;;;;;;5.47;2.00;;;21.70;69.10;;;24.78;49.29;101377.56;5086181;28;20244;-66
2022/06/27 07:53:12;;;;;;;3.20;1.57;;;21.80;68.90;;;24.83;49.42;101395.66;5087032;28;20185;-66
2022/06/27 07:55:44;;;;;;;6.07;3.00;;;21.80;68.90;;;24.91;49.50;101389.84;5085777;28;20284;-65
2022/06/27 07:58:16;;;;;;;2.53;1.80;;;21.80;68.80;;;25.00;49.69;101374.84;5085455;28;20200;-66
2022/06/27 08:00:50;;;;;;;4.30;3.63;;;21.90;69.00;;;25.11;49.03;101373.88;5085900;28;20210;-66
2022/06/27 08:06:10;;;;;;;3.60;3.30;;;22.10;68.60;;;25.34;48.83;101403.19;5086801;28;20212;-66
2022/06/27 08:08:41;;;;;;;3.93;3.57;;;22.20;68.50;;;25.43;48.59;101401.69;5087215;28;20231;-65
2022/06/27 08:11:14;;;;;;;4.20;3.50;;;22.30;68.00;;;25.45;48.16;101410.34;5085902;28;20848;-66
2022/06/27 08:13:44;;;;;;;5.53;3.40;;;22.30;67.30;;;25.49;47.76;101395.28;5086380;28;20184;-64
2022/06/27 08:16:15;;;;;;;4.17;2.20;;;22.30;67.50;;;25.57;48.43;101404.78;5086846;28;20227;-65
2022/06/27 08:18:44;;;;;;;3.53;2.93;;;22.30;67.60;;;25.68;47.48;101419.16;5086813;28;20738;-65
2022/06/27 08:21:13;;;;;;;4.20;2.50;;;22.40;67.30;;;25.70;47.78;101422.44;5086292;28;20262;-66
2022/06/27 08:23:41;;;;;;;3.37;2.57;;;22.40;66.30;;;25.63;47.20;101427.19;5086495;28;20228;-66
2022/06/27 08:26:12;;;;;;;3.57;3.17;;;22.40;66.30;;;25.56;47.86;101427.41;5086467;28;20524;-66
2022/06/27 08:28:43;;;;;;;8.13;3.93;;;22.40;66.10;;;25.51;47.27;101419.28;5084919;28;20204;-66
2022/06/27 08:31:13;;;;;;;2.80;2.60;;;22.30;66.20;;;25.51;47.80;101433.59;5086113;28;20219;-66
2022/06/27 08:33:45;;;;;;;3.43;2.50;;;22.40;67.00;;;25.56;48.04;101435.50;5083755;28;20272;-66
2022/06/27 08:36:14;;;;;;;12.97;10.60;;;22.40;67.10;;;25.67;47.62;101436.41;5087045;28;20185;-65
2022/06/27 08:38:42;;;;;;;10.57;9.37;;;22.50;67.20;;;25.75;47.51;101435.94;5087407;28;20224;-67
2022/06/27 08:41:12;;;;;;;13.40;12.10;;;22.60;67.00;;;25.81;47.75;101443.00;5084398;28;21734;-64
2022/06/27 08:43:40;;;;;;;11.40;7.30;;;22.60;66.80;;;25.81;47.09;101440.31;5084303;28;20199;-66
2022/06/27 08:46:15;;;;;;;4.77;4.30;;;22.70;66.60;;;25.80;47.84;101446.75;5085993;28;20228;-65
2022/06/27 08:48:45;;;;;;;5.83;3.33;;;22.70;66.50;;;25.80;47.00;101444.06;5085744;28;20188;-66
2022/06/27 08:51:13;;;;;;;4.90;2.77;;;22.70;66.10;;;25.79;47.85;101437.06;5084658;28;20220;-65
2022/06/27 08:53:42;;;;;;;3.10;2.47;;;22.60;66.10;;;25.86;47.72;101421.47;5084874;28;20197;-65
2022/06/27 08:56:15;;;;;;;3.20;2.57;;;22.70;66.70;;;25.93;46.89;101427.47;5085062;28;20207;-64
2022/06/27 08:58:46;;;;;;;15.03;13.57;;;22.70;66.40;;;25.97;47.55;101428.56;5084570;28;20516;-69
2022/06/27 09:01:16;;;;;;;4.33;3.60;;;22.80;66.40;;;26.14;47.25;101402.25;5084008;28;20243;-66
2022/06/27 09:03:58;;;;;;;3.77;3.47;;;22.80;66.60;;;26.42;47.17;101382.13;5081564;28;20188;-64
2022/06/27 09:06:27;;;;;;;4.27;3.33;;;23.00;66.70;;;26.67;45.94;101356.03;5084852;28;20217;-65
2022/06/27 09:09:06;;;;;;;4.17;3.10;;;23.10;65.80;;;26.90;45.40;101349.38;5082400;28;20197;-65
2022/06/27 09:11:38;;;;;;;3.97;2.97;;;23.30;65.70;;;27.20;45.33;101351.28;5083763;28;20228;-65
2022/06/27 09:14:31;;;;;;;3.27;2.60;;;23.50;65.50;;;27.45;44.67;101354.03;5083189;28;20196;-65
2022/06/27 09:17:00;;;;;;;4.83;3.23;;;23.70;64.50;;;27.65;44.16;101358.63;5087316;28;20193;-64
2022/06/27 09:19:50;;;;;;;2.37;2.17;;;23.80;63.80;;;27.71;43.82;101363.75;5092935;28;20207;-64
2022/06/27 09:22:19;;;;;;;7.30;6.60;;;24.00;63.80;;;27.84;43.61;101370.47;5094141;28;20221;-65
2022/06/27 09:25:06;;;;;;;4.07;3.57;;;24.10;63.10;;;27.82;43.15;101375.38;5086725;28;20196;-65
2022/06/27 09:27:45;;;;;;;4.10;3.40;;;24.20;62.10;;;27.81;43.19;101381.88;5085902;28;20197;-65
2022/06/27 09:30:24;;;;;;;3.87;3.47;;;24.30;62.70;;;27.73;43.19;101383.22;5085882;28;20200;-66
2022/06/27 09:32:54;;;;;;;4.77;3.10;;;24.30;61.70;;;27.85;43.60;101389.19;5080183;28;20228;-65
2022/06/27 09:35:25;;;;;;;6.17;5.60;;;24.30;61.90;;;27.91;43.20;101396.19;5083931;28;20184;-65
2022/06/27 09:37:54;;;;;;;5.57;3.13;;;24.30;61.20;;;27.89;43.10;101397.53;5083782;28;20280;-64
2022/06/27 09:40:24;;;;;;;4.33;3.40;;;24.30;61.70;;;27.79;43.41;101398.38;5082997;28;20209;-65
2022/06/27 09:42:57;;;;;;;4.67;4.20;;;24.30;61.80;;;27.64;43.67;101411.13;5084382;28;20855;-65
2022/06/27 09:45:28;;;;;;;18.53;16.73;;;24.20;62.10;;;27.52;44.12;101422.22;5083166;28;20211;-62
2022/06/27 09:48:01;;;;;;;5.07;4.67;;;24.10;62.40;;;27.39;44.14;101430.84;5083981;28;20200;-65
2022/06/27 09:50:33;;;;;;;3.30;2.60;;;24.10;62.20;;;27.19;43.92;101428.09;5083800;28;20200;-65
2022/06/27 09:53:01;;;;;;;6.23;5.70;;;24.00;62.10;;;26.99;44.87;101418.03;5082298;28;20291;-65
2022/06/27 09:55:30;;;;;;;5.20;4.07;;;23.90;62.70;;;26.83;45.18;101405.56;5083169;28;20710;-64
2022/06/27 09:58:01;;;;;;;3.87;3.40;;;23.70;63.10;;;26.71;45.48;101389.56;5083073;28;20197;-64
2022/06/27 10:00:28;;;;;;;4.43;4.10;;;23.70;63.80;;;26.77;45.64;101385.81;5082909;28;20184;-64
2022/06/27 10:03:00;;;;;;;7.90;6.70;;;23.60;64.40;;;27.04;45.83;101388.31;5083742;28;20260;-64
2022/06/27 10:05:27;;;;;;;4.93;4.50;;;23.60;65.00;;;27.27;45.10;101389.69;5084583;28;20216;-65
2022/06/27 10:07:59;;;;;;;3.60;3.20;;;23.80;64.80;;;27.33;44.99;101394.03;5083042;28;20193;-64
2022/06/27 10:10:30;;;;;;;4.77;4.37;;;23.80;64.30;;;27.33;44.95;101394.84;5083287;28;20197;-63
2022/06/27 10:13:02;;;;;;;4.37;4.03;;;23.90;64.00;;;27.24;45.22;101392.94;5084934;28;20666;-65
2022/06/27 10:15:32;;;;;;;4.80;4.10;;;23.90;63.50;;;27.14;44.98;101401.84;5082530;28;20516;-65
2022/06/27 10:18:02;;;;;;;3.93;3.50;;;23.90;63.70;;;27.05;45.57;101408.06;5082255;28;20199;-66
2022/06/27 10:20:36;;;;;;;4.07;3.67;;;23.90;63.80;;;26.96;45.49;101404.25;5081074;28;20638;-66
2022/06/27 10:23:28;;;;;;;4.47;4.07;;;23.80;63.90;;;26.79;45.54;101413.38;5082846;28;20193;-67
2022/06/27 10:25:57;;;;;;;5.07;4.57;;;23.70;64.00;;;26.75;46.19;101427.69;5082658;28;20212;-65
2022/06/27 10:28:27;;;;;;;5.23;4.10;;;23.60;64.20;;;26.66;46.37;101427.34;5080500;28;20250;-64